createdAt,value
2022-10-15T00:04:24.028Z,101483.94
2022-10-15T00:09:22.994Z,101489.53
2022-10-15T00:14:21.932Z,101490.84
2022-10-15T00:19:22.192Z,101489.66
2022-10-15T00:24:21.041Z,101497.16
2022-10-15T00:29:19.904Z,101486.22
2022-10-15T00:34:18.876Z,101492.28
2022-10-15T00:39:20.016Z,101489.06
2022-10-15T00:44:52.399Z,101485.00
2022-10-15T00:49:58.444Z,101480.22
2022-10-15T00:55:03.860Z,101480.31
2022-10-15T01:00:09.223Z,101486.75
2022-10-15T01:05:11.927Z,101484.06
2022-10-15T01:10:14.320Z,101481.47
2022-10-15T01:15:18.243Z,101480.88
2022-10-15T01:20:45.729Z,101484.63
2022-10-15T01:26:02.263Z,101488.00
2022-10-15T01:31:08.323Z,101473.84
2022-10-15T01:36:17.608Z,101466.75
2022-10-15T01:41:23.165Z,101475.84
2022-10-15T01:46:33.300Z,101476.72
2022-10-15T01:51:39.325Z,101483.41
2022-10-15T01:56:39.871Z,101486.31
2022-10-15T02:06:45.988Z,101490.22
2022-10-15T02:11:57.142Z,101484.03
2022-10-15T02:17:04.216Z,101488.41
2022-10-15T02:22:10.331Z,101484.56
2022-10-15T02:27:12.225Z,101500.19
2022-10-15T02:32:14.052Z,101493.34
2022-10-15T02:37:14.240Z,101500.00
2022-10-15T02:42:17.852Z,101496.97
2022-10-15T02:47:18.278Z,101494.28
2022-10-15T02:52:17.231Z,101508.69
2022-10-15T02:57:16.481Z,101511.53
2022-10-15T03:02:19.381Z,101500.09
2022-10-15T03:07:19.662Z,101496.66
2022-10-15T03:12:21.090Z,101496.38
2022-10-15T03:17:21.728Z,101504.63
2022-10-15T03:22:21.587Z,101499.19
2022-10-15T03:27:26.330Z,101506.16
2022-10-15T03:32:27.382Z,101510.03
2022-10-15T03:37:26.497Z,101505.25
2022-10-15T03:42:27.344Z,101506.97
2022-10-15T03:47:27.884Z,101506.19
2022-10-15T03:52:28.429Z,101503.84
2022-10-15T03:57:27.728Z,101512.03
2022-10-15T04:02:36.920Z,101508.56
2022-10-15T04:07:35.892Z,101506.78
2022-10-15T04:12:35.115Z,101513.06
2022-10-15T04:17:39.279Z,101514.38
2022-10-15T04:22:39.251Z,101519.66
2022-10-15T04:27:40.026Z,101516.16
2022-10-15T04:32:46.316Z,101516.72
2022-10-15T04:37:45.973Z,101519.72
2022-10-15T04:42:45.054Z,101524.06
2022-10-15T04:47:46.318Z,101530.28
2022-10-15T04:52:47.152Z,101529.78
2022-10-15T04:57:46.324Z,101532.97
2022-10-15T05:02:47.152Z,101535.13
2022-10-15T05:07:53.740Z,101535.81
2022-10-15T05:12:56.618Z,101532.44
2022-10-15T05:18:04.065Z,101543.25
2022-10-15T05:23:12.232Z,101539.53
2022-10-15T05:28:13.800Z,101548.34
2022-10-15T05:33:14.246Z,101545.34
2022-10-15T05:38:13.728Z,101555.44
2022-10-15T05:43:13.156Z,101556.06
2022-10-15T05:48:13.927Z,101561.16
2022-10-15T05:53:13.350Z,101564.72
2022-10-15T05:58:16.733Z,101564.84
2022-10-15T06:03:17.075Z,101576.84
2022-10-15T06:08:16.072Z,101586.03
2022-10-15T06:13:16.186Z,101581.75
2022-10-15T06:18:17.031Z,101586.78
2022-10-15T06:23:15.791Z,101592.97
2022-10-15T06:28:14.799Z,101590.03
2022-10-15T06:33:16.359Z,101593.31
2022-10-15T06:38:16.704Z,101605.72
2022-10-15T06:43:46.029Z,101585.84
2022-10-15T06:48:47.255Z,101598.81
2022-10-15T06:53:48.674Z,101600.69
2022-10-15T06:58:47.810Z,101591.41
2022-10-15T07:03:52.135Z,101596.19
2022-10-15T07:08:52.824Z,101598.63
2022-10-15T07:13:52.816Z,101594.75
2022-10-15T07:18:52.924Z,101599.16
2022-10-15T07:23:53.584Z,101594.06
2022-10-15T07:28:53.546Z,101587.88
2022-10-15T07:34:04.608Z,101597.81
2022-10-15T07:39:05.845Z,101603.44
2022-10-15T07:44:07.371Z,101597.34
2022-10-15T07:49:06.528Z,101595.09
2022-10-15T07:54:07.332Z,101599.31
2022-10-15T07:59:06.355Z,101602.03
2022-10-15T08:04:06.605Z,101603.03
2022-10-15T08:09:08.783Z,101608.16
2022-10-15T08:14:07.663Z,101602.81
2022-10-15T08:19:06.455Z,101602.09
2022-10-15T08:24:05.783Z,101599.78
2022-10-15T08:29:08.996Z,101596.78
2022-10-15T08:34:08.280Z,101613.31
2022-10-15T08:39:09.340Z,101609.53
2022-10-15T08:44:17.283Z,101609.22
2022-10-15T08:49:28.092Z,101606.53
2022-10-15T08:54:36.640Z,101602.59
2022-10-15T08:59:42.072Z,101599.47
2022-10-15T09:04:49.804Z,101610.13
2022-10-15T09:09:52.644Z,101610.09
2022-10-15T09:15:01.105Z,101612.34
2022-10-15T09:20:07.959Z,101599.78
2022-10-15T09:25:17.463Z,101589.59
2022-10-15T09:30:34.073Z,101583.69
2022-10-15T09:41:16.703Z,101575.88
2022-10-15T09:46:17.313Z,101569.53
2022-10-15T09:51:27.141Z,101579.13
2022-10-15T09:56:33.441Z,101578.16
2022-10-15T10:01:34.725Z,101578.41
2022-10-15T10:06:33.936Z,101571.91
2022-10-15T10:11:49.634Z,101561.34
2022-10-15T10:17:18.888Z,101550.47
2022-10-15T10:22:20.287Z,101555.03
2022-10-15T10:27:45.051Z,101553.28
2022-10-15T10:33:02.212Z,101549.34
2022-10-15T10:38:03.204Z,101542.75
2022-10-15T10:43:13.581Z,101544.13
2022-10-15T10:48:23.441Z,101527.78
2022-10-15T10:53:24.937Z,101526.25
2022-10-15T10:58:27.125Z,101516.31
2022-10-15T11:03:37.084Z,101504.91
2022-10-15T11:08:42.928Z,101507.81
2022-10-15T11:13:58.846Z,101499.09
2022-10-15T11:19:19.101Z,101487.06
2022-10-15T11:24:48.392Z,101487.78
2022-10-15T11:29:56.391Z,101488.16
2022-10-15T11:35:24.058Z,101476.81
2022-10-15T11:40:41.079Z,101485.63
2022-10-15T11:46:00.720Z,101474.81
2022-10-15T11:51:08.191Z,101467.25
2022-10-15T11:56:14.897Z,101465.16
2022-10-15T12:01:20.597Z,101461.41
2022-10-15T12:06:31.441Z,101469.91
2022-10-15T12:11:41.870Z,101460.09
2022-10-15T12:16:55.669Z,101462.69
2022-10-15T12:22:11.578Z,101460.09
2022-10-15T12:27:22.484Z,101470.66
2022-10-15T12:32:26.949Z,101471.34
2022-10-15T12:37:29.497Z,101478.97
2022-10-15T12:42:31.221Z,101481.56
2022-10-15T12:47:49.184Z,101474.13
2022-10-15T12:52:59.720Z,101481.59
2022-10-15T12:58:06.960Z,101475.19
2022-10-15T13:03:39.096Z,101475.56
2022-10-15T13:08:45.716Z,101482.16
2022-10-15T13:13:46.089Z,101491.03
2022-10-15T13:18:51.238Z,101493.28
2022-10-15T13:23:52.781Z,101487.34
2022-10-15T13:28:52.977Z,101495.78
2022-10-15T13:33:55.427Z,101504.03
2022-10-15T13:39:00.389Z,101501.41
2022-10-15T13:44:01.230Z,101500.59
2022-10-15T13:49:02.881Z,101505.22
2022-10-15T13:54:08.546Z,101502.06
2022-10-15T13:59:07.610Z,101503.06
2022-10-15T14:04:17.372Z,101498.66
2022-10-15T14:09:23.078Z,101495.06
2022-10-15T14:14:34.217Z,101494.59
2022-10-15T14:19:35.324Z,101486.63
2022-10-15T14:24:39.150Z,101489.31
2022-10-15T14:29:41.569Z,101482.47
2022-10-15T14:34:42.119Z,101477.16
2022-10-15T14:39:42.449Z,101471.63
2022-10-15T14:44:46.667Z,101477.91
2022-10-15T14:49:59.984Z,101482.72
2022-10-15T14:55:11.744Z,101485.13
2022-10-15T15:00:17.059Z,101476.88
2022-10-15T15:05:23.956Z,101473.38
2022-10-15T15:10:39.601Z,101476.22
2022-10-15T15:15:42.473Z,101476.91
2022-10-15T15:20:43.882Z,101473.06
2022-10-15T15:25:44.163Z,101475.00
2022-10-15T15:30:45.196Z,101485.22
2022-10-15T15:35:51.118Z,101495.81
2022-10-15T15:40:52.186Z,101491.44
2022-10-15T15:45:51.010Z,101495.81
2022-10-15T15:50:50.009Z,101494.66
2022-10-15T15:55:51.425Z,101506.66
2022-10-15T16:00:51.934Z,101501.81
2022-10-15T16:10:50.162Z,101521.78
2022-10-15T16:15:49.004Z,101521.59
2022-10-15T16:20:49.990Z,101535.50
2022-10-15T16:25:48.908Z,101530.84
2022-10-15T16:30:47.766Z,101543.91
2022-10-15T16:35:54.637Z,101547.13
2022-10-15T16:40:53.418Z,101550.19
2022-10-15T16:45:59.048Z,101560.53
2022-10-15T16:51:03.667Z,101563.25
2022-10-15T16:56:06.876Z,101570.56
2022-10-15T17:01:07.573Z,101573.59
2022-10-15T17:06:12.491Z,101592.25
2022-10-15T17:11:17.083Z,101589.78
2022-10-15T17:16:17.821Z,101595.84
2022-10-15T17:21:22.714Z,101597.63
2022-10-15T17:26:25.828Z,101591.88
2022-10-15T17:31:26.579Z,101598.00
2022-10-15T17:36:29.135Z,101605.00
2022-10-15T17:41:33.560Z,101595.06
2022-10-15T17:46:37.327Z,101600.09
2022-10-15T17:51:38.285Z,101603.66
2022-10-15T17:56:40.549Z,101609.97
2022-10-15T18:01:59.216Z,101615.88
2022-10-15T18:07:00.374Z,101619.31
2022-10-15T18:12:01.305Z,101618.00
2022-10-15T18:17:02.447Z,101624.25
2022-10-15T18:22:02.751Z,101623.78
2022-10-15T18:27:01.588Z,101626.28
2022-10-15T18:32:00.776Z,101634.31
2022-10-15T18:37:02.713Z,101633.56
2022-10-15T18:42:01.676Z,101639.56
2022-10-15T18:47:01.317Z,101647.09
2022-10-15T18:52:15.779Z,101651.50
2022-10-15T18:57:25.554Z,101660.22
2022-10-15T19:02:28.044Z,101674.25
2022-10-15T19:07:31.671Z,101672.56
2022-10-15T19:12:31.496Z,101682.50
2022-10-15T19:17:32.957Z,101680.56
2022-10-15T19:22:33.760Z,101682.03
2022-10-15T19:27:33.443Z,101681.38
2022-10-15T19:32:32.418Z,101691.28
2022-10-15T19:37:42.830Z,101691.00
2022-10-15T19:42:42.068Z,101687.56
2022-10-15T19:47:40.883Z,101686.34
2022-10-15T19:52:42.228Z,101685.53
2022-10-15T19:57:41.168Z,101696.25
2022-10-15T20:02:39.968Z,101695.28
2022-10-15T20:07:38.894Z,101698.88
2022-10-15T20:12:39.361Z,101704.94
2022-10-15T20:17:38.477Z,101702.38
2022-10-15T20:22:37.325Z,101699.28
2022-10-15T20:27:36.119Z,101711.25
2022-10-15T20:32:37.180Z,101712.22
2022-10-15T20:37:36.529Z,101705.38
2022-10-15T20:42:37.697Z,101703.16
2022-10-15T20:47:41.755Z,101705.81
2022-10-15T20:52:43.157Z,101708.50
2022-10-15T20:57:42.608Z,101704.22
2022-10-15T21:02:43.194Z,101703.19
2022-10-15T21:07:42.109Z,101705.75
2022-10-15T21:12:41.348Z,101707.59
2022-10-15T21:17:41.123Z,101710.31
2022-10-15T21:22:59.821Z,101717.09
2022-10-15T21:28:05.547Z,101715.84
2022-10-15T21:33:07.719Z,101725.34
2022-10-15T21:38:08.490Z,101720.81
2022-10-15T21:43:09.480Z,101718.91
2022-10-15T21:48:11.176Z,101717.25
2022-10-15T21:53:11.334Z,101715.78
2022-10-15T21:58:10.203Z,101715.06
2022-10-15T22:03:09.006Z,101718.50
2022-10-15T22:08:07.926Z,101721.28
2022-10-15T22:13:08.293Z,101720.69
2022-10-15T22:18:07.257Z,101733.38
2022-10-15T22:23:06.052Z,101726.53
2022-10-15T22:28:04.911Z,101729.97
2022-10-15T22:33:05.503Z,101732.91
2022-10-15T22:38:04.265Z,101739.88
2022-10-15T22:43:04.607Z,101743.47
2022-10-15T22:48:05.011Z,101753.19
2022-10-15T22:53:04.752Z,101763.31
2022-10-15T22:58:06.698Z,101763.63
2022-10-15T23:03:07.214Z,101762.63
2022-10-15T23:08:06.786Z,101770.56
2022-10-15T23:13:05.523Z,101769.81
2022-10-15T23:18:04.690Z,101773.41
2022-10-15T23:23:05.082Z,101770.75
2022-10-15T23:28:04.186Z,101769.97
2022-10-15T23:33:03.873Z,101774.50
2022-10-15T23:38:04.201Z,101775.44
2022-10-15T23:43:03.057Z,101785.34
2022-10-15T23:48:01.810Z,101792.50
2022-10-15T23:53:00.813Z,101797.22
2022-10-15T23:58:01.020Z,101803.63
